Startpagina
METAR-TAF:

METAR-TAF

Vliegvelden :

Flughafen Köln-Bonn

Keulen, Duitsland

breedte: 50-52N, lengte: 007-10E, hoogte: 91 m

Actueel weer

Dit bericht is 26 minuten geleden gemaakt, om 15:20 UTC
Wind 9 kt uit het zuidoosten
Temperatuur 11°C
Vochtigheid 71%
Druk 1027 hPa
Zicht 10 km of meer
geen wolken onder 1500 m en geen cumulonimbus

METAR: EDDK 141520Z 13009KT CAVOK 11/06 Q1027 NOSIG

Tijdstip: 16:46 (15:46 UTC)

Verwachting

Dit bericht is 4 uur en het 46 minuten geleden gemaakt, om 11:00 UTC
Verwachting geldig van 14 om 12 UTC tot 15 om 18 UTC
Wind 8 kt uit het zuidoosten
Zicht 10 km of meer
geen wolken onder 1500 m en geen cumulonimbus
Tijdelijke
van 15 om 03 UTC tot 15 om 09 UTC
Gebroken wolken op 1000 ft

TAF: EDDK 141100Z 1412/1518 13008KT CAVOK TEMPO 1503/1509 BKN010

Waarnemingen en weersverwachtingen van meer dan 4000 vliegvelden (METAR en TAF).

De beschikbare stations zijn de gele en rode punten op de kaart.

Ga met uw muis naar het station om de naam te zien.

Klik dan om waarnemingen en weersverwachtingen te zien.

kaart wijzigen: klik op de groene knoppen met een zwart kruis om in te zoomen, op de groene knop met een streepje om uit te zoomen of op de groene pijlen voor aangrenzende kaarten.


METAR-TAF: